createdAt,value
2016-12-04T00:00:02.541Z,1023.38
2016-12-04T00:01:13.722Z,1023.41
2016-12-04T00:02:24.703Z,1023.42
2016-12-04T00:03:35.731Z,1023.44
2016-12-04T00:04:46.918Z,1023.44
2016-12-04T00:05:57.922Z,1023.46
2016-12-04T00:07:08.896Z,1023.49
2016-12-04T00:08:19.907Z,1023.5
2016-12-04T00:09:30.931Z,1023.47
2016-12-04T00:10:41.913Z,1023.55
2016-12-04T00:11:52.902Z,1023.51
2016-12-04T00:13:04.281Z,1023.51
2016-12-04T00:14:15.493Z,1023.53
2016-12-04T00:15:26.524Z,1023.54
2016-12-04T00:16:37.496Z,1023.52
2016-12-04T00:17:48.684Z,1023.51
2016-12-04T00:18:59.688Z,1023.55
2016-12-04T00:20:10.670Z,1023.56
2016-12-04T00:21:21.696Z,1023.58
2016-12-04T00:22:33.081Z,1023.58
2016-12-04T00:23:44.056Z,1023.58
2016-12-04T00:24:55.033Z,1023.6
2016-12-04T00:26:06.421Z,1023.62
2016-12-04T00:27:17.471Z,1023.63
2016-12-04T00:28:28.461Z,1023.66
2016-12-04T00:29:39.652Z,1023.66
2016-12-04T00:30:50.832Z,1023.68
2016-12-04T00:32:01.807Z,1023.66
2016-12-04T00:33:12.835Z,1023.68
2016-12-04T00:34:23.836Z,1023.67
2016-12-04T00:35:34.815Z,1023.69
2016-12-04T00:36:45.995Z,1023.71
2016-12-04T00:37:56.973Z,1023.66
2016-12-04T00:39:07.991Z,1023.72
2016-12-04T00:40:18.982Z,1023.72
2016-12-04T00:41:29.957Z,1023.68
2016-12-04T00:42:40.939Z,1023.71
2016-12-04T00:43:51.929Z,1023.71
2016-12-04T00:45:02.958Z,1023.73
2016-12-04T00:46:13.937Z,1023.7
2016-12-04T00:47:24.917Z,1023.73
2016-12-04T00:48:35.893Z,1023.72
2016-12-04T00:49:46.880Z,1023.68
2016-12-04T00:50:57.907Z,1023.7
2016-12-04T00:52:08.885Z,1023.68
2016-12-04T00:53:20.064Z,1023.68
2016-12-04T00:54:31.047Z,1023.65
2016-12-04T00:55:42.036Z,1023.67
2016-12-04T00:56:53.069Z,1023.67
2016-12-04T00:58:04.053Z,1023.66
2016-12-04T00:59:15.037Z,1023.67
2016-12-04T01:00:26.018Z,1023.68
2016-12-04T01:01:37.006Z,1023.68
2016-12-04T01:02:48.034Z,1023.66
2016-12-04T01:03:59.012Z,1023.71
2016-12-04T01:05:10.002Z,1023.68
2016-12-04T01:06:20.990Z,1023.69
2016-12-04T01:07:31.975Z,1023.71
2016-12-04T01:08:43.415Z,1023.73
2016-12-04T01:09:54.393Z,1023.72
2016-12-04T01:11:05.387Z,1023.73
2016-12-04T01:12:16.588Z,1023.73
2016-12-04T01:13:27.779Z,1023.74
2016-12-04T01:14:38.812Z,1023.74
2016-12-04T01:15:49.798Z,1023.72
2016-12-04T01:17:00.774Z,1023.73
2016-12-04T01:18:11.754Z,1023.75
2016-12-04T01:19:22.931Z,1023.7
2016-12-04T01:20:33.964Z,1023.72
2016-12-04T01:21:45.152Z,1023.73
2016-12-04T01:22:56.134Z,1023.71
2016-12-04T01:24:07.114Z,1023.75
2016-12-04T01:25:18.097Z,1023.73
2016-12-04T01:26:29.124Z,1023.74
2016-12-04T01:27:40.122Z,1023.77
2016-12-04T01:28:51.307Z,1023.78
2016-12-04T01:30:02.286Z,1023.75
2016-12-04T01:31:13.259Z,1023.77
2016-12-04T01:32:24.286Z,1023.74
2016-12-04T01:33:35.262Z,1023.79
2016-12-04T01:34:46.235Z,1023.76
2016-12-04T01:35:57.218Z,1023.76
2016-12-04T01:37:08.188Z,1023.82
2016-12-04T01:38:19.208Z,1023.8
2016-12-04T01:39:30.186Z,1023.85
2016-12-04T01:40:41.172Z,1023.82
2016-12-04T01:41:52.151Z,1023.86
2016-12-04T01:43:03.139Z,1023.83
2016-12-04T01:44:14.168Z,1023.81
2016-12-04T01:45:25.344Z,1023.87
2016-12-04T01:46:36.330Z,1023.89
2016-12-04T01:47:47.305Z,1023.83
2016-12-04T01:48:58.289Z,1023.8
2016-12-04T01:50:09.311Z,1023.82
2016-12-04T01:51:20.299Z,1023.79
2016-12-04T01:52:31.279Z,1023.77
2016-12-04T01:53:42.465Z,1023.8
2016-12-04T01:54:53.645Z,1023.8
2016-12-04T01:56:04.674Z,1023.8
2016-12-04T01:57:15.662Z,1023.79
2016-12-04T01:58:26.640Z,1023.74
2016-12-04T01:59:37.618Z,1023.77
2016-12-04T02:00:48.801Z,1023.75
2016-12-04T02:01:59.836Z,1023.73
2016-12-04T02:03:10.826Z,1023.72
2016-12-04T02:04:21.811Z,1023.71
2016-12-04T02:05:33.004Z,1023.67
2016-12-04T02:06:44.188Z,1023.7
2016-12-04T02:07:55.417Z,1023.67
2016-12-04T02:09:06.403Z,1023.69
2016-12-04T02:10:17.383Z,1023.68
2016-12-04T02:11:28.582Z,1023.66
2016-12-04T02:12:39.558Z,1023.64
2016-12-04T02:13:50.591Z,1023.63
2016-12-04T02:15:01.570Z,1023.59
2016-12-04T02:16:12.549Z,1023.59
2016-12-04T02:17:23.527Z,1023.58
2016-12-04T02:18:34.515Z,1023.61
2016-12-04T02:19:45.744Z,1023.59
2016-12-04T02:20:56.723Z,1023.55
2016-12-04T02:22:07.909Z,1023.6
2016-12-04T02:23:18.884Z,1023.56
2016-12-04T02:24:29.868Z,1023.56
2016-12-04T02:25:40.887Z,1023.53
2016-12-04T02:26:51.866Z,1023.53
2016-12-04T02:28:02.849Z,1023.5
2016-12-04T02:29:13.836Z,1023.49
2016-12-04T02:30:24.813Z,1023.46
2016-12-04T02:31:35.846Z,1023.52
2016-12-04T02:32:47.250Z,1023.49
2016-12-04T02:33:58.436Z,1023.52
2016-12-04T02:35:09.417Z,1023.53
2016-12-04T02:36:20.808Z,1023.52
2016-12-04T02:37:31.842Z,1023.52
2016-12-04T02:38:42.818Z,1023.5
2016-12-04T02:39:53.806Z,1023.51
2016-12-04T02:41:04.784Z,1023.53
2016-12-04T02:42:15.792Z,1023.46
2016-12-04T02:43:26.819Z,1023.51
2016-12-04T02:44:37.806Z,1023.5
2016-12-04T02:45:48.789Z,1023.53
2016-12-04T02:46:59.776Z,1023.51
2016-12-04T02:48:10.760Z,1023.49
2016-12-04T02:49:22.005Z,1023.51
2016-12-04T02:50:32.986Z,1023.5
2016-12-04T02:51:44.167Z,1023.52
2016-12-04T02:52:55.145Z,1023.54
2016-12-04T02:54:06.125Z,1023.5
2016-12-04T02:55:17.365Z,1023.51
2016-12-04T02:56:28.346Z,1023.47
2016-12-04T02:57:39.319Z,1023.51
2016-12-04T02:58:50.305Z,1023.46
2016-12-04T03:00:01.310Z,1023.47
2016-12-04T03:01:12.342Z,1023.45
2016-12-04T03:02:23.326Z,1023.48
2016-12-04T03:03:34.307Z,1023.44
2016-12-04T03:04:45.491Z,1023.41
2016-12-04T03:05:56.475Z,1023.39
2016-12-04T03:07:07.506Z,1023.41
2016-12-04T03:08:18.683Z,1023.4
2016-12-04T03:09:29.659Z,1023.39
2016-12-04T03:10:40.642Z,1023.36
2016-12-04T03:11:51.630Z,1023.38
2016-12-04T03:13:02.665Z,1023.33
2016-12-04T03:14:13.647Z,1023.33
2016-12-04T03:15:24.631Z,1023.32
2016-12-04T03:16:35.611Z,1023.32
2016-12-04T03:17:46.589Z,1023.33
2016-12-04T03:18:57.623Z,1023.29
2016-12-04T03:20:08.599Z,1023.28
2016-12-04T03:21:19.581Z,1023.3
2016-12-04T03:22:30.562Z,1023.25
2016-12-04T03:23:41.548Z,1023.22
2016-12-04T03:24:52.983Z,1023.27
2016-12-04T03:26:03.964Z,1023.24
2016-12-04T03:27:14.949Z,1023.25
2016-12-04T03:28:26.141Z,1023.24
2016-12-04T03:29:37.119Z,1023.2
2016-12-04T03:30:48.150Z,1023.19
2016-12-04T03:31:59.336Z,1023.15
2016-12-04T03:33:10.317Z,1023.1
2016-12-04T03:34:21.313Z,1023.12
2016-12-04T03:35:32.305Z,1023.13
2016-12-04T03:36:43.536Z,1023.13
2016-12-04T03:37:54.718Z,1023.12
2016-12-04T03:39:05.698Z,1023.09
2016-12-04T03:40:16.878Z,1023.06
2016-12-04T03:41:27.868Z,1023.11
2016-12-04T03:42:38.900Z,1023.09
2016-12-04T03:43:49.880Z,1023.11
2016-12-04T03:45:00.858Z,1023.15
2016-12-04T03:46:12.050Z,1023.07
2016-12-04T03:47:23.434Z,1023.11
2016-12-04T03:48:34.468Z,1023.12
2016-12-04T03:49:45.642Z,1023.13
2016-12-04T03:50:56.621Z,1023.11
2016-12-04T03:52:07.609Z,1023.09
2016-12-04T03:53:18.589Z,1023.09
2016-12-04T03:54:29.620Z,1023.09
2016-12-04T03:55:40.596Z,1023.11
2016-12-04T03:56:51.579Z,1023.08
2016-12-04T03:58:02.605Z,1023.1
2016-12-04T03:59:13.591Z,1023.08
2016-12-04T04:00:24.621Z,1023.07
2016-12-04T04:01:35.809Z,1023.07
2016-12-04T04:02:46.788Z,1023.05
2016-12-04T04:03:57.765Z,1023.05
2016-12-04T04:05:08.945Z,1023.1
2016-12-04T04:06:19.985Z,1023.08
2016-12-04T04:07:30.965Z,1023.05
2016-12-04T04:08:42.153Z,1023.07
2016-12-04T04:09:53.347Z,1023.05
2016-12-04T04:11:04.329Z,1023.11
2016-12-04T04:12:15.377Z,1023.14
2016-12-04T04:13:26.356Z,1023.1
2016-12-04T04:14:37.538Z,1023.1
2016-12-04T04:15:48.511Z,1023.11
2016-12-04T04:16:59.492Z,1023.07
2016-12-04T04:18:10.520Z,1023.14
2016-12-04T04:19:21.706Z,1023.08
2016-12-04T04:20:32.685Z,1023.15
2016-12-04T04:21:43.671Z,1023.11
2016-12-04T04:22:54.657Z,1023.15
2016-12-04T04:24:05.685Z,1023.17
2016-12-04T04:25:16.667Z,1023.14
2016-12-04T04:26:27.847Z,1023.15
2016-12-04T04:27:38.847Z,1023.21
2016-12-04T04:28:49.831Z,1023.2
2016-12-04T04:30:00.864Z,1023.17
2016-12-04T04:31:11.850Z,1023.19
2016-12-04T04:32:22.835Z,1023.15
2016-12-04T04:33:34.015Z,1023.13
2016-12-04T04:34:44.993Z,1023.14
2016-12-04T04:35:56.022Z,1023.17
2016-12-04T04:37:06.997Z,1023.17
2016-12-04T04:38:18.178Z,1023.19
2016-12-04T04:39:29.149Z,1023.13
2016-12-04T04:40:40.137Z,1023.14
2016-12-04T04:41:51.365Z,1023.13
2016-12-04T04:43:02.344Z,1023.1
2016-12-04T04:44:13.362Z,1023.06
2016-12-04T04:45:24.334Z,1023.07
2016-12-04T04:46:35.313Z,1023.06
2016-12-04T04:47:46.344Z,1023.07
2016-12-04T04:48:57.727Z,1023.1
2016-12-04T04:50:08.709Z,1023.09
2016-12-04T04:51:19.892Z,1023.11
2016-12-04T04:52:31.079Z,1023.08
2016-12-04T04:53:42.138Z,1023.08
2016-12-04T04:54:53.322Z,1023.09
2016-12-04T04:56:04.502Z,1023.07
2016-12-04T04:57:15.518Z,1023.09
2016-12-04T04:58:26.498Z,1023.07
2016-12-04T04:59:37.535Z,1023.1
2016-12-04T05:00:48.511Z,1023.09
2016-12-04T05:01:59.695Z,1023.13
2016-12-04T05:03:10.680Z,1023.16
2016-12-04T05:04:21.657Z,1023.15
2016-12-04T05:05:32.688Z,1023.22
2016-12-04T05:06:43.671Z,1023.26
2016-12-04T05:07:54.677Z,1023.22
2016-12-04T05:09:05.651Z,1023.22
2016-12-04T05:10:16.629Z,1023.22
2016-12-04T05:11:27.662Z,1023.22
2016-12-04T05:12:38.669Z,1023.22
2016-12-04T05:13:49.650Z,1023.25
2016-12-04T05:15:00.635Z,1023.2
2016-12-04T05:16:11.821Z,1023.19
2016-12-04T05:17:22.903Z,1023.22
2016-12-04T05:18:33.888Z,1023.23
2016-12-04T05:19:45.269Z,1023.21
2016-12-04T05:20:56.246Z,1023.23
2016-12-04T05:22:07.232Z,1023.25
2016-12-04T05:23:18.265Z,1023.29
2016-12-04T05:24:29.237Z,1023.28
2016-12-04T05:25:40.222Z,1023.28
2016-12-04T05:26:51.198Z,1023.27
2016-12-04T05:28:02.407Z,1023.31
2016-12-04T05:29:13.439Z,1023.36
2016-12-04T05:30:24.428Z,1023.32
2016-12-04T05:31:35.408Z,1023.32
2016-12-04T05:32:46.795Z,1023.31
2016-12-04T05:33:57.971Z,1023.31
2016-12-04T05:35:09.005Z,1023.34
2016-12-04T05:36:19.987Z,1023.34
2016-12-04T05:37:30.967Z,1023.35
2016-12-04T05:38:41.957Z,1023.34
2016-12-04T05:39:52.939Z,1023.38
2016-12-04T05:41:03.971Z,1023.38
2016-12-04T05:42:14.955Z,1023.41
2016-12-04T05:43:25.937Z,1023.39
2016-12-04T05:44:36.937Z,1023.45
2016-12-04T05:45:48.121Z,1023.4
2016-12-04T05:46:59.350Z,1023.41
2016-12-04T05:48:10.538Z,1023.4
2016-12-04T05:49:21.719Z,1023.42
2016-12-04T05:50:32.899Z,1023.41
2016-12-04T05:51:43.886Z,1023.4
2016-12-04T05:52:54.918Z,1023.42
2016-12-04T05:54:05.902Z,1023.45
2016-12-04T05:55:16.884Z,1023.43
2016-12-04T05:56:27.865Z,1023.4
2016-12-04T05:57:38.841Z,1023.39
2016-12-04T05:58:49.871Z,1023.42
2016-12-04T06:00:00.846Z,1023.45
2016-12-04T06:01:11.849Z,1023.48
2016-12-04T06:02:23.028Z,1023.48
2016-12-04T06:03:34.003Z,1023.47
2016-12-04T06:04:45.437Z,1023.45
2016-12-04T06:05:56.650Z,1023.46
2016-12-04T06:07:07.626Z,1023.47
2016-12-04T06:08:18.803Z,1023.47
2016-12-04T06:09:29.987Z,1023.45
2016-12-04T06:10:41.213Z,1023.47
2016-12-04T06:11:52.188Z,1023.46
2016-12-04T06:13:03.172Z,1023.42
2016-12-04T06:14:14.166Z,1023.51
2016-12-04T06:15:25.141Z,1023.51
2016-12-04T06:16:36.172Z,1023.52
2016-12-04T06:17:47.156Z,1023.52
2016-12-04T06:18:58.339Z,1023.57
2016-12-04T06:20:09.320Z,1023.59
2016-12-04T06:21:20.303Z,1023.6
2016-12-04T06:22:31.329Z,1023.59
2016-12-04T06:23:42.307Z,1023.62
2016-12-04T06:24:53.284Z,1023.58
2016-12-04T06:26:04.273Z,1023.64
2016-12-04T06:27:15.252Z,1023.62
2016-12-04T06:28:26.283Z,1023.59
2016-12-04T06:29:37.453Z,1023.59
2016-12-04T06:30:48.429Z,1023.63
2016-12-04T06:31:59.409Z,1023.63
2016-12-04T06:33:10.593Z,1023.66
2016-12-04T06:34:21.819Z,1023.63
2016-12-04T06:35:32.998Z,1023.66
2016-12-04T06:36:43.981Z,1023.64
2016-12-04T06:37:55.156Z,1023.62
2016-12-04T06:39:06.142Z,1023.64
2016-12-04T06:40:17.171Z,1023.59
2016-12-04T06:41:28.145Z,1023.62
2016-12-04T06:42:39.133Z,1023.63
2016-12-04T06:43:50.109Z,1023.61
2016-12-04T06:45:01.090Z,1023.6
2016-12-04T06:46:12.120Z,1023.62
2016-12-04T06:47:23.095Z,1023.61
2016-12-04T06:48:34.080Z,1023.64
2016-12-04T06:49:45.062Z,1023.64
2016-12-04T06:50:56.034Z,1023.63
2016-12-04T06:52:07.065Z,1023.65
2016-12-04T06:53:18.042Z,1023.62
2016-12-04T06:54:29.223Z,1023.65
2016-12-04T06:55:40.200Z,1023.68
2016-12-04T06:56:51.180Z,1023.74
2016-12-04T06:58:02.233Z,1023.74
2016-12-04T06:59:13.417Z,1023.78
2016-12-04T07:00:24.596Z,1023.8
2016-12-04T07:01:35.775Z,1023.76
2016-12-04T07:02:46.755Z,1023.81
2016-12-04T07:03:57.787Z,1023.84
2016-12-04T07:05:08.772Z,1023.87
2016-12-04T07:06:19.762Z,1023.86
2016-12-04T07:07:30.748Z,1023.84
2016-12-04T07:08:41.724Z,1023.92
2016-12-04T07:09:52.748Z,1023.9
2016-12-04T07:11:03.730Z,1023.95
2016-12-04T07:12:14.911Z,1023.92
2016-12-04T07:13:25.892Z,1023.96
2016-12-04T07:14:36.869Z,1023.99
2016-12-04T07:15:47.903Z,1024.03
2016-12-04T07:16:58.887Z,1024.03
2016-12-04T07:18:09.873Z,1024.03
2016-12-04T07:19:20.858Z,1024.04
2016-12-04T07:20:32.040Z,1024.06
2016-12-04T07:21:43.071Z,1024.03
2016-12-04T07:22:54.049Z,1023.99
2016-12-04T07:24:05.428Z,1024.02
2016-12-04T07:25:16.608Z,1024.03
2016-12-04T07:26:27.596Z,1024.06
2016-12-04T07:27:38.636Z,1024.09
2016-12-04T07:28:49.622Z,1024.09
2016-12-04T07:30:00.612Z,1024.05
2016-12-04T07:31:11.585Z,1024.06
2016-12-04T07:32:22.557Z,1024.06
2016-12-04T07:33:33.596Z,1024.05
2016-12-04T07:34:44.573Z,1024.09
2016-12-04T07:35:55.551Z,1024.09
2016-12-04T07:37:06.531Z,1024.07
2016-12-04T07:38:17.512Z,1024.1
2016-12-04T07:39:28.551Z,1024.09
2016-12-04T07:40:39.529Z,1024.1
2016-12-04T07:41:50.509Z,1024.14
2016-12-04T07:43:01.485Z,1024.11
2016-12-04T07:44:12.477Z,1024.09
2016-12-04T07:45:23.504Z,1024.12
2016-12-04T07:46:34.682Z,1024.07
2016-12-04T07:47:45.855Z,1024.06
2016-12-04T07:48:56.833Z,1024.07
2016-12-04T07:50:07.810Z,1024.09
2016-12-04T07:51:19.044Z,1024.11
2016-12-04T07:52:30.024Z,1024.13
2016-12-04T07:53:41.000Z,1024.12
2016-12-04T07:54:51.975Z,1024.1
2016-12-04T07:56:02.956Z,1024.14
2016-12-04T07:57:13.990Z,1024.13
2016-12-04T07:58:24.966Z,1024.12
2016-12-04T07:59:35.950Z,1024.14
2016-12-04T08:00:47.128Z,1024.16
2016-12-04T08:01:58.103Z,1024.22
2016-12-04T08:03:09.127Z,1024.18
2016-12-04T08:04:20.108Z,1024.22
2016-12-04T08:05:31.085Z,1024.27
2016-12-04T08:06:42.076Z,1024.28
2016-12-04T08:07:53.053Z,1024.28
2016-12-04T08:09:04.086Z,1024.27
2016-12-04T08:10:15.269Z,1024.3
2016-12-04T08:11:26.247Z,1024.23
2016-12-04T08:12:37.433Z,1024.29
2016-12-04T08:13:48.408Z,1024.24
2016-12-04T08:14:59.437Z,1024.25
2016-12-04T08:16:10.422Z,1024.24
2016-12-04T08:17:21.402Z,1024.22
2016-12-04T08:18:32.382Z,1024.26
2016-12-04T08:19:43.568Z,1024.25
2016-12-04T08:20:54.602Z,1024.26
2016-12-04T08:22:05.585Z,1024.27
2016-12-04T08:23:16.609Z,1024.27
2016-12-04T08:24:27.599Z,1024.31
2016-12-04T08:25:38.583Z,1024.32
2016-12-04T08:26:49.619Z,1024.31
2016-12-04T08:28:00.607Z,1024.34
2016-12-04T08:29:11.587Z,1024.38
2016-12-04T08:30:22.567Z,1024.38
2016-12-04T08:31:33.548Z,1024.37
2016-12-04T08:32:44.581Z,1024.41
2016-12-04T08:33:55.773Z,1024.39
2016-12-04T08:35:06.752Z,1024.41
2016-12-04T08:36:17.733Z,1024.38
2016-12-04T08:37:28.721Z,1024.44
2016-12-04T08:38:39.760Z,1024.45
2016-12-04T08:39:50.938Z,1024.46
2016-12-04T08:41:02.148Z,1024.46
2016-12-04T08:42:13.130Z,1024.47
2016-12-04T08:43:24.108Z,1024.48
2016-12-04T08:44:35.139Z,1024.49
2016-12-04T08:45:46.120Z,1024.55
2016-12-04T08:46:57.101Z,1024.58
2016-12-04T08:48:08.081Z,1024.57
2016-12-04T08:49:19.277Z,1024.53
2016-12-04T08:50:30.516Z,1024.57
2016-12-04T08:51:41.497Z,1024.55
2016-12-04T08:52:52.484Z,1024.56
2016-12-04T08:54:03.675Z,1024.56
2016-12-04T08:55:14.664Z,1024.51
2016-12-04T08:56:25.701Z,1024.47
2016-12-04T08:57:36.685Z,1024.55
2016-12-04T08:58:47.674Z,1024.53
2016-12-04T08:59:58.653Z,1024.52
2016-12-04T09:01:09.642Z,1024.46
2016-12-04T09:02:20.684Z,1024.44
2016-12-04T09:03:31.672Z,1024.46
2016-12-04T09:04:42.655Z,1024.51
2016-12-04T09:05:53.660Z,1024.51
2016-12-04T09:07:04.650Z,1024.58
2016-12-04T09:08:15.685Z,1024.6
2016-12-04T09:09:26.683Z,1024.57
2016-12-04T09:10:37.671Z,1024.63
2016-12-04T09:11:48.658Z,1024.62
2016-12-04T09:12:59.644Z,1024.63
2016-12-04T09:14:10.691Z,1024.67
2016-12-04T09:15:21.886Z,1024.65
2016-12-04T09:16:33.074Z,1024.67
2016-12-04T09:17:44.265Z,1024.64
2016-12-04T09:18:55.256Z,1024.68
2016-12-04T09:20:06.289Z,1024.64
2016-12-04T09:21:17.284Z,1024.63
2016-12-04T09:22:28.278Z,1024.64
2016-12-04T09:23:39.268Z,1024.65
2016-12-04T09:24:50.297Z,1024.68
2016-12-04T09:26:01.546Z,1024.68
2016-12-04T09:27:12.749Z,1024.65
2016-12-04T09:28:23.747Z,1024.67
2016-12-04T09:29:35.140Z,1024.7
2016-12-04T09:30:46.129Z,1024.64
2016-12-04T09:31:57.176Z,1024.63
2016-12-04T09:33:08.375Z,1024.65
2016-12-04T09:34:19.376Z,1024.67
2016-12-04T09:35:30.800Z,1024.65
2016-12-04T09:36:41.797Z,1024.69
2016-12-04T09:37:52.846Z,1024.69
2016-12-04T09:39:03.870Z,1024.66
2016-12-04T09:40:14.862Z,1024.7
2016-12-04T09:41:25.883Z,1024.69
2016-12-04T09:42:36.875Z,1024.64
2016-12-04T09:43:47.921Z,1024.72
2016-12-04T09:44:59.127Z,1024.72
2016-12-04T09:46:10.332Z,1024.71
2016-12-04T09:47:21.352Z,1024.71
2016-12-04T09:48:32.345Z,1024.73
2016-12-04T09:49:43.391Z,1024.78
2016-12-04T09:50:54.392Z,1024.77
2016-12-04T09:52:05.380Z,1024.76
2016-12-04T09:53:16.380Z,1024.76
2016-12-04T09:54:27.388Z,1024.74
2016-12-04T09:55:38.636Z,1024.73
2016-12-04T09:56:49.631Z,1024.71
2016-12-04T09:58:00.624Z,1024.74
2016-12-04T09:59:11.626Z,1024.76
2016-12-04T10:00:22.833Z,1024.74
2016-12-04T10:01:33.886Z,1024.76
2016-12-04T10:02:44.898Z,1024.68
2016-12-04T10:03:55.889Z,1024.74
2016-12-04T10:05:06.886Z,1024.73
2016-12-04T10:06:18.089Z,1024.69
2016-12-04T10:07:29.140Z,1024.71
2016-12-04T10:08:40.136Z,1024.7
2016-12-04T10:09:51.139Z,1024.67
2016-12-04T10:11:02.369Z,1024.67
2016-12-04T10:12:13.373Z,1024.69
2016-12-04T10:13:24.427Z,1024.66
2016-12-04T10:14:35.421Z,1024.64
2016-12-04T10:15:46.418Z,1024.64
2016-12-04T10:16:57.617Z,1024.6
2016-12-04T10:18:08.618Z,1024.6
2016-12-04T10:19:19.670Z,1024.62
2016-12-04T10:20:30.875Z,1024.61
2016-12-04T10:21:41.877Z,1024.59
2016-12-04T10:22:52.875Z,1024.62
2016-12-04T10:24:03.881Z,1024.58
2016-12-04T10:25:14.941Z,1024.56
2016-12-04T10:26:25.940Z,1024.53
2016-12-04T10:27:36.941Z,1024.53
2016-12-04T10:28:47.946Z,1024.55
2016-12-04T10:29:58.974Z,1024.51
2016-12-04T10:31:10.028Z,1024.5
2016-12-04T10:32:21.027Z,1024.48
2016-12-04T10:33:32.030Z,1024.45
2016-12-04T10:34:43.031Z,1024.41
2016-12-04T10:35:54.230Z,1024.44
2016-12-04T10:37:05.480Z,1024.44
2016-12-04T10:38:16.479Z,1024.39
2016-12-04T10:39:27.480Z,1024.42
2016-12-04T10:40:38.518Z,1024.42
2016-12-04T10:41:49.523Z,1024.43
2016-12-04T10:43:00.577Z,1024.42
2016-12-04T10:44:11.573Z,1024.41
2016-12-04T10:45:22.570Z,1024.4
2016-12-04T10:46:33.565Z,1024.36
2016-12-04T10:47:44.560Z,1024.35
2016-12-04T10:48:55.609Z,1024.31
2016-12-04T10:50:06.602Z,1024.34
2016-12-04T10:51:17.613Z,1024.35
2016-12-04T10:52:28.819Z,1024.3
2016-12-04T10:53:39.817Z,1024.33
2016-12-04T10:54:50.866Z,1024.34
2016-12-04T10:56:01.854Z,1024.36
2016-12-04T10:57:13.053Z,1024.28
2016-12-04T10:58:24.053Z,1024.31
2016-12-04T10:59:35.057Z,1024.35
2016-12-04T11:00:46.312Z,1024.31
2016-12-04T11:01:57.508Z,1024.32
2016-12-04T11:03:08.503Z,1024.33
2016-12-04T11:04:19.511Z,1024.36
2016-12-04T11:05:30.501Z,1024.33
2016-12-04T11:06:41.545Z,1024.35
2016-12-04T11:07:52.551Z,1024.34
2016-12-04T11:09:03.554Z,1024.36
2016-12-04T11:10:14.549Z,1024.36
2016-12-04T11:11:25.742Z,1024.35
2016-12-04T11:12:36.978Z,1024.32
2016-12-04T11:13:48.170Z,1024.35
2016-12-04T11:14:59.367Z,1024.37
2016-12-04T11:16:10.388Z,1024.35
2016-12-04T11:17:21.376Z,1024.31
2016-12-04T11:18:32.628Z,1024.28
2016-12-04T11:19:43.626Z,1024.28
2016-12-04T11:20:54.627Z,1024.3
2016-12-04T11:22:05.613Z,1024.31
2016-12-04T11:23:16.602Z,1024.28
2016-12-04T11:24:27.643Z,1024.3
2016-12-04T11:25:38.639Z,1024.29
2016-12-04T11:26:49.632Z,1024.31
2016-12-04T11:28:00.624Z,1024.33
2016-12-04T11:29:11.604Z,1024.34
2016-12-04T11:30:22.647Z,1024.3
2016-12-04T11:31:33.841Z,1024.29
2016-12-04T11:32:44.827Z,1024.24
2016-12-04T11:33:55.824Z,1024.21
2016-12-04T11:35:07.016Z,1024.26
2016-12-04T11:36:18.085Z,1024.22
2016-12-04T11:37:29.074Z,1024.2
2016-12-04T11:38:40.103Z,1024.2
2016-12-04T11:39:51.096Z,1024.15
2016-12-04T11:41:02.097Z,1024.13
2016-12-04T11:42:13.135Z,1024.13
2016-12-04T11:43:24.150Z,1024.14
2016-12-04T11:44:35.140Z,1024.16
2016-12-04T11:45:46.358Z,1024.11
2016-12-04T11:46:57.349Z,1024.13
2016-12-04T11:48:08.416Z,1024.14
2016-12-04T11:49:19.406Z,1024.08
2016-12-04T11:50:30.404Z,1024.09
2016-12-04T11:51:41.396Z,1024.08
2016-12-04T11:52:52.395Z,1024.07
2016-12-04T11:54:03.438Z,1024.06
2016-12-04T11:55:14.435Z,1024.1
2016-12-04T11:56:25.423Z,1024.07
2016-12-04T11:57:36.633Z,1024.05
2016-12-04T11:58:47.628Z,1024.02
2016-12-04T11:59:58.666Z,1024.05
2016-12-04T12:01:09.661Z,1024.04
2016-12-04T12:02:20.658Z,1024.02
2016-12-04T12:03:31.642Z,1024.01
2016-12-04T12:04:42.826Z,1023.97
2016-12-04T12:05:53.877Z,1023.96
2016-12-04T12:07:04.876Z,1024.01
2016-12-04T12:08:15.869Z,1023.99
2016-12-04T12:09:26.855Z,1023.98
2016-12-04T12:10:38.044Z,1024.02
2016-12-04T12:11:49.082Z,1023.99
2016-12-04T12:13:00.067Z,1023.98
2016-12-04T12:14:11.057Z,1023.96
2016-12-04T12:15:22.039Z,1023.95
2016-12-04T12:16:33.233Z,1024.01
2016-12-04T12:17:44.505Z,1024.04
2016-12-04T12:18:55.489Z,1024.02
2016-12-04T12:20:06.472Z,1024.03
2016-12-04T12:21:17.456Z,1023.95
2016-12-04T12:22:28.675Z,1023.94
2016-12-04T12:23:39.739Z,1023.92
2016-12-04T12:24:50.729Z,1023.93
2016-12-04T12:26:01.748Z,1023.94
2016-12-04T12:27:12.735Z,1023.94
2016-12-04T12:28:23.715Z,1023.95
2016-12-04T12:29:34.751Z,1023.9
2016-12-04T12:30:45.742Z,1023.91
2016-12-04T12:31:56.739Z,1023.92
2016-12-04T12:33:07.937Z,1023.89
2016-12-04T12:34:18.926Z,1023.92
2016-12-04T12:35:29.961Z,1023.94
2016-12-04T12:36:40.957Z,1023.96
2016-12-04T12:37:51.953Z,1024
2016-12-04T12:39:02.942Z,1023.91
2016-12-04T12:40:13.954Z,1023.91
2016-12-04T12:41:24.988Z,1023.87
2016-12-04T12:42:35.974Z,1023.84
2016-12-04T12:43:46.963Z,1023.84
2016-12-04T12:44:57.953Z,1023.83
2016-12-04T12:46:08.935Z,1023.85
2016-12-04T12:47:19.972Z,1023.84
2016-12-04T12:48:30.975Z,1023.83
2016-12-04T12:49:41.965Z,1023.83
2016-12-04T12:50:52.952Z,1023.76
2016-12-04T12:52:03.944Z,1023.76
2016-12-04T12:53:14.988Z,1023.72
2016-12-04T12:54:25.971Z,1023.74
2016-12-04T12:55:37.165Z,1023.73
2016-12-04T12:56:48.350Z,1023.7
2016-12-04T12:57:59.342Z,1023.7
2016-12-04T12:59:10.579Z,1023.66
2016-12-04T13:00:21.794Z,1023.64
2016-12-04T13:01:32.788Z,1023.64
2016-12-04T13:02:43.974Z,1023.65
2016-12-04T13:03:54.965Z,1023.58
2016-12-04T13:05:06.003Z,1023.66
2016-12-04T13:06:16.993Z,1023.65
2016-12-04T13:07:27.984Z,1023.63
2016-12-04T13:08:38.993Z,1023.59
2016-12-04T13:09:49.983Z,1023.6
2016-12-04T13:11:01.017Z,1023.59
2016-12-04T13:12:12.026Z,1023.59
2016-12-04T13:13:23.213Z,1023.56
2016-12-04T13:14:34.203Z,1023.54
2016-12-04T13:15:45.394Z,1023.51
2016-12-04T13:16:56.431Z,1023.54
2016-12-04T13:18:07.414Z,1023.54
2016-12-04T13:19:18.609Z,1023.54
2016-12-04T13:20:29.599Z,1023.53
2016-12-04T13:21:40.585Z,1023.53
2016-12-04T13:22:51.635Z,1023.55
2016-12-04T13:24:02.617Z,1023.53
2016-12-04T13:25:13.599Z,1023.54
2016-12-04T13:26:24.580Z,1023.52
2016-12-04T13:27:35.568Z,1023.49
2016-12-04T13:28:46.597Z,1023.5
2016-12-04T13:29:57.574Z,1023.49
2016-12-04T13:31:08.961Z,1023.54
2016-12-04T13:32:19.949Z,1023.49
2016-12-04T13:33:31.139Z,1023.54
2016-12-04T13:34:42.374Z,1023.46
2016-12-04T13:35:53.365Z,1023.47
2016-12-04T13:37:04.767Z,1023.53
2016-12-04T13:38:15.739Z,1023.5
2016-12-04T13:39:26.718Z,1023.49
2016-12-04T13:40:37.752Z,1023.47
2016-12-04T13:41:48.741Z,1023.46
2016-12-04T13:42:59.932Z,1023.5
2016-12-04T13:44:10.917Z,1023.46
2016-12-04T13:45:21.896Z,1023.44
2016-12-04T13:46:32.925Z,1023.45
2016-12-04T13:47:44.149Z,1023.44
2016-12-04T13:48:55.128Z,1023.48
2016-12-04T13:50:06.118Z,1023.43
2016-12-04T13:51:17.106Z,1023.41
2016-12-04T13:52:28.145Z,1023.44
2016-12-04T13:53:39.127Z,1023.44
2016-12-04T13:54:50.116Z,1023.45
2016-12-04T13:56:01.102Z,1023.44
2016-12-04T13:57:12.088Z,1023.44
2016-12-04T13:58:23.116Z,1023.45
2016-12-04T13:59:34.325Z,1023.43
2016-12-04T14:00:45.313Z,1023.47
2016-12-04T14:01:56.325Z,1023.43
2016-12-04T14:03:07.302Z,1023.42
2016-12-04T14:04:18.338Z,1023.41
2016-12-04T14:05:29.316Z,1023.38
2016-12-04T14:06:40.303Z,1023.38
2016-12-04T14:07:51.316Z,1023.39
2016-12-04T14:09:02.303Z,1023.4
2016-12-04T14:10:13.338Z,1023.4
2016-12-04T14:11:24.330Z,1023.4
2016-12-04T14:12:35.328Z,1023.41
2016-12-04T14:13:46.313Z,1023.44
2016-12-04T14:14:57.304Z,1023.4
2016-12-04T14:16:08.337Z,1023.42
2016-12-04T14:17:19.530Z,1023.45
2016-12-04T14:18:30.523Z,1023.45
2016-12-04T14:19:41.504Z,1023.42
2016-12-04T14:20:52.715Z,1023.36